createdAt,value
2023-03-02T08:37:08.280Z,2351.25
2023-03-02T08:38:09.346Z,2340.00
2023-03-02T08:39:09.449Z,2379.38
2023-03-02T08:40:09.494Z,2300.62
2023-03-02T08:41:09.574Z,2283.75
2023-03-02T08:42:09.701Z,2401.88
2023-03-02T08:43:09.771Z,2491.88
2023-03-02T08:44:09.809Z,2441.25
2023-03-02T08:45:09.884Z,2418.75
2023-03-02T08:46:10.013Z,2418.75
2023-03-02T08:47:10.047Z,2430.00
2023-03-02T08:48:10.104Z,2413.12
2023-03-02T08:49:10.202Z,2418.75
2023-03-02T08:50:10.256Z,2531.25
2023-03-02T08:51:10.349Z,2581.88
2023-03-02T08:52:10.436Z,2452.50
2023-03-02T08:53:10.478Z,2317.50
2023-03-02T08:54:10.558Z,2373.75
2023-03-02T08:55:10.746Z,2413.12
2023-03-02T08:56:10.712Z,2418.75
2023-03-02T08:57:10.846Z,2362.50
2023-03-02T08:58:10.882Z,2317.50
2023-03-02T08:59:11.001Z,2295.00
2023-03-02T09:00:11.066Z,2351.25
2023-03-02T09:01:11.236Z,2351.25
2023-03-02T09:02:11.262Z,2300.62
2023-03-02T09:03:11.334Z,2227.50
2023-03-02T09:04:11.476Z,2238.75
2023-03-02T09:05:11.510Z,2295.00
2023-03-02T09:06:11.596Z,2311.88
2023-03-02T09:07:11.669Z,2289.38
2023-03-02T09:08:11.712Z,2278.12
2023-03-02T09:09:11.798Z,2306.25
2023-03-02T09:10:11.850Z,2323.12
2023-03-02T09:11:11.910Z,2340.00
2023-03-02T09:12:12.008Z,2306.25
2023-03-02T09:13:12.069Z,2328.75
2023-03-02T09:14:12.125Z,2283.75
2023-03-02T09:15:12.197Z,2278.12
2023-03-02T09:16:12.350Z,2295.00
2023-03-02T09:17:12.422Z,2413.12
2023-03-02T09:18:12.467Z,2401.88
2023-03-02T09:19:12.546Z,2300.62
2023-03-02T09:20:12.590Z,2233.12
2023-03-02T09:21:12.674Z,2205.00
2023-03-02T09:22:12.766Z,2221.88
2023-03-02T09:23:12.839Z,2210.62
2023-03-02T09:24:12.896Z,2216.25
2023-03-02T09:25:12.972Z,2272.50
2023-03-02T09:26:13.035Z,2306.25
2023-03-02T09:27:13.138Z,2216.25
2023-03-02T09:28:13.207Z,2205.00
2023-03-02T09:29:13.286Z,2272.50
2023-03-02T09:30:13.393Z,2306.25
2023-03-02T09:31:13.444Z,2250.00
2023-03-02T09:32:13.642Z,2176.88
2023-03-02T09:33:13.713Z,2188.12
2023-03-02T09:34:13.632Z,2221.88
2023-03-02T09:35:13.715Z,2182.50
2023-03-02T09:36:13.806Z,2160.00
2023-03-02T09:37:13.918Z,2160.00
2023-03-02T09:38:13.996Z,2098.12
2023-03-02T09:39:14.083Z,2098.12
2023-03-02T09:40:14.153Z,2098.12
2023-03-02T09:41:14.254Z,2098.12
2023-03-02T09:42:14.329Z,2047.50
2023-03-02T09:43:14.441Z,2013.75
2023-03-02T09:44:14.508Z,2025.00
2023-03-02T09:45:14.607Z,2030.62
2023-03-02T09:46:14.735Z,2047.50
2023-03-02T09:47:16.508Z,2025.00
2023-03-02T09:48:14.832Z,2013.75
2023-03-02T09:49:14.928Z,2008.12
2023-03-02T09:50:14.972Z,1963.12
2023-03-02T09:51:15.934Z,1901.25
2023-03-02T09:52:15.130Z,1845.00
2023-03-02T09:53:15.208Z,1861.88
2023-03-02T09:54:15.287Z,1845.00
2023-03-02T09:55:15.367Z,1828.12
2023-03-02T09:56:15.409Z,1777.50
2023-03-02T09:57:15.534Z,1743.75
2023-03-02T09:58:15.587Z,1726.88
2023-03-02T09:59:15.681Z,1693.12
2023-03-02T10:00:19.506Z,1625.62
2023-03-02T10:01:16.811Z,1597.50
2023-03-02T10:02:15.931Z,1563.75
2023-03-02T10:03:17.617Z,1541.25
2023-03-02T10:04:16.266Z,1541.25
2023-03-02T10:05:16.149Z,1546.88
2023-03-02T10:06:16.192Z,1558.12
2023-03-02T10:07:16.321Z,1546.88
2023-03-02T10:08:16.431Z,1530.00
2023-03-02T10:09:16.460Z,1501.88
2023-03-02T10:10:16.621Z,1496.25
2023-03-02T10:11:16.641Z,1473.75
2023-03-02T10:12:16.718Z,1440.00
2023-03-02T10:13:16.808Z,1411.88
2023-03-02T10:14:16.844Z,1378.12
2023-03-02T10:15:16.928Z,1355.62
2023-03-02T10:16:17.085Z,1361.25
2023-03-02T10:17:17.070Z,1316.25
2023-03-02T10:18:17.129Z,1299.38
2023-03-02T10:19:17.217Z,1288.12
2023-03-02T10:20:17.309Z,1271.25
2023-03-02T10:21:17.386Z,1265.62
2023-03-02T10:22:17.518Z,1248.75
2023-03-02T10:23:17.556Z,1209.38
2023-03-02T10:24:17.632Z,1186.88
2023-03-02T10:25:17.725Z,1153.12
2023-03-02T10:26:17.819Z,1130.62
2023-03-02T10:27:17.939Z,1108.12
2023-03-02T10:28:17.974Z,1085.62
2023-03-02T10:29:18.065Z,1051.88
2023-03-02T10:30:18.133Z,1035.00
2023-03-02T10:31:18.305Z,1006.88
2023-03-02T10:32:18.360Z,973.12
2023-03-02T10:33:18.379Z,956.25
2023-03-02T10:34:18.484Z,939.38
2023-03-02T10:35:18.631Z,933.75
2023-03-02T10:36:20.530Z,933.75
2023-03-02T10:37:18.782Z,922.50
2023-03-02T10:38:18.793Z,900.00
2023-03-02T10:39:18.842Z,888.75
2023-03-02T10:40:18.916Z,883.12
2023-03-02T10:41:19.006Z,888.75
2023-03-02T10:42:19.156Z,911.25
2023-03-02T10:43:19.192Z,933.75
2023-03-02T10:44:19.287Z,984.38
2023-03-02T10:45:19.361Z,1068.75
2023-03-02T10:46:19.520Z,1288.12
2023-03-02T10:47:20.265Z,1676.25
2023-03-02T10:48:19.594Z,1935.00
2023-03-02T10:49:21.003Z,1771.88
2023-03-02T10:50:19.752Z,1440.00
2023-03-02T10:51:19.843Z,1355.62
2023-03-02T10:52:19.948Z,1361.25
2023-03-02T10:53:19.992Z,990.00
2023-03-02T10:54:20.095Z,590.62
2023-03-02T10:55:20.218Z,466.88
2023-03-02T10:56:20.259Z,393.75
2023-03-02T10:57:20.349Z,376.88
2023-03-02T10:58:20.417Z,371.25
2023-03-02T10:59:20.448Z,360.00
2023-03-02T11:00:20.528Z,360.00
2023-03-02T11:01:20.610Z,354.38
2023-03-02T11:02:20.691Z,354.38
2023-03-02T11:03:20.747Z,354.38
2023-03-02T11:04:20.902Z,354.38
2023-03-02T11:05:20.907Z,348.75
2023-03-02T11:06:20.994Z,348.75
2023-03-02T11:07:21.070Z,348.75
2023-03-02T11:08:21.153Z,348.75
2023-03-02T11:09:21.211Z,343.12
2023-03-02T11:10:21.296Z,343.12
2023-03-02T11:11:21.524Z,343.12
2023-03-02T11:12:21.475Z,343.12
2023-03-02T11:13:21.531Z,337.50
2023-03-02T11:14:21.628Z,337.50
2023-03-02T11:15:21.691Z,337.50
2023-03-02T11:16:21.848Z,337.50
2023-03-02T11:17:21.846Z,331.88
2023-03-02T11:18:21.922Z,331.88
2023-03-02T11:19:21.975Z,326.25
2023-03-02T11:20:22.118Z,326.25
2023-03-02T11:21:22.135Z,326.25
2023-03-02T11:22:22.239Z,326.25
2023-03-02T11:23:22.315Z,320.62
2023-03-02T11:24:22.378Z,320.62
2023-03-02T11:25:22.436Z,320.62
2023-03-02T11:26:22.515Z,315.00
2023-03-02T11:27:22.649Z,315.00
2023-03-02T11:28:22.662Z,315.00
2023-03-02T11:29:22.922Z,315.00
2023-03-02T11:30:22.811Z,309.38
2023-03-02T11:31:22.908Z,309.38
2023-03-02T11:32:23.067Z,309.38
2023-03-02T11:33:23.052Z,303.75
2023-03-02T11:34:23.264Z,303.75
2023-03-02T11:35:23.214Z,303.75
2023-03-02T11:36:23.223Z,298.12
2023-03-02T11:37:23.342Z,303.75
2023-03-02T11:38:23.377Z,303.75
2023-03-02T11:39:23.427Z,303.75
2023-03-02T11:40:23.506Z,303.75
2023-03-02T11:41:23.561Z,298.12
2023-03-02T11:42:23.733Z,298.12
2023-03-02T11:43:23.717Z,298.12
2023-03-02T11:44:23.820Z,298.12
2023-03-02T11:45:23.924Z,292.50
2023-03-02T11:46:26.216Z,292.50
2023-03-02T11:47:24.176Z,292.50
2023-03-02T11:48:24.184Z,292.50
2023-03-02T11:49:24.213Z,292.50
2023-03-02T11:50:24.304Z,286.88
2023-03-02T11:51:24.369Z,286.88
2023-03-02T11:52:24.481Z,286.88
2023-03-02T11:53:24.581Z,286.88
2023-03-02T11:54:24.639Z,286.88
2023-03-02T11:55:24.716Z,286.88
2023-03-02T11:56:24.795Z,286.88
2023-03-02T11:57:24.871Z,286.88
2023-03-02T11:58:24.942Z,286.88
2023-03-02T11:59:27.565Z,281.25
2023-03-02T12:00:25.094Z,281.25
2023-03-02T12:01:25.152Z,281.25
2023-03-02T12:02:25.321Z,281.25
2023-03-02T12:03:25.295Z,281.25
2023-03-02T12:04:25.369Z,281.25
2023-03-02T12:05:25.432Z,281.25
2023-03-02T12:06:25.517Z,281.25
2023-03-02T12:07:25.570Z,281.25
2023-03-02T12:08:25.643Z,275.62
2023-03-02T12:09:25.807Z,275.62
2023-03-02T12:10:25.801Z,275.62
2023-03-02T12:11:25.881Z,275.62
2023-03-02T12:12:25.999Z,275.62
2023-03-02T12:13:26.062Z,275.62
2023-03-02T12:14:26.158Z,275.62
2023-03-02T12:15:26.242Z,275.62
2023-03-02T12:16:26.361Z,275.62
2023-03-02T12:17:26.420Z,275.62
2023-03-02T12:18:26.471Z,275.62
2023-03-02T12:19:26.549Z,275.62
2023-03-02T12:20:26.642Z,275.62
2023-03-02T12:21:26.677Z,275.62
2023-03-02T12:22:26.786Z,275.62
2023-03-02T12:23:26.831Z,270.00
2023-03-02T12:24:26.942Z,270.00
2023-03-02T12:25:27.006Z,270.00
2023-03-02T12:26:27.088Z,270.00
2023-03-02T12:27:27.209Z,270.00
2023-03-02T12:28:27.255Z,270.00
2023-03-02T12:29:27.326Z,270.00
2023-03-02T12:30:27.466Z,270.00
2023-03-02T12:31:27.605Z,270.00
2023-03-02T12:32:27.614Z,270.00
2023-03-02T12:33:27.619Z,264.38
2023-03-02T12:34:27.698Z,264.38
2023-03-02T12:35:27.800Z,264.38
2023-03-02T12:36:27.855Z,264.38
2023-03-02T12:37:27.931Z,264.38
2023-03-02T12:38:28.016Z,264.38
2023-03-02T12:39:28.065Z,264.38
2023-03-02T12:40:28.141Z,264.38
2023-03-02T12:41:28.194Z,264.38
2023-03-02T12:42:28.289Z,264.38
2023-03-02T12:43:28.351Z,264.38
2023-03-02T12:44:28.430Z,264.38
2023-03-02T12:45:28.546Z,264.38
2023-03-02T12:46:28.587Z,264.38
2023-03-02T12:47:29.394Z,264.38
2023-03-02T12:48:28.873Z,258.75
2023-03-02T12:49:28.793Z,258.75
2023-03-02T12:50:28.885Z,264.38
2023-03-02T12:51:28.965Z,264.38
2023-03-02T12:52:29.111Z,258.75
2023-03-02T12:53:29.072Z,258.75
2023-03-02T12:54:29.163Z,258.75
2023-03-02T12:55:29.212Z,258.75
2023-03-02T12:56:29.314Z,258.75
2023-03-02T12:57:29.377Z,258.75
2023-03-02T12:58:29.442Z,258.75
2023-03-02T12:59:29.501Z,258.75
2023-03-02T13:00:29.588Z,258.75
2023-03-02T13:01:29.677Z,258.75
2023-03-02T13:02:29.832Z,258.75
2023-03-02T13:03:29.794Z,258.75
2023-03-02T13:04:29.927Z,258.75
2023-03-02T13:05:29.955Z,258.75
2023-03-02T13:06:30.054Z,258.75
2023-03-02T13:07:30.122Z,258.75
2023-03-02T13:08:30.231Z,258.75
2023-03-02T13:09:30.262Z,258.75
2023-03-02T13:10:30.405Z,258.75
2023-03-02T13:11:30.428Z,258.75
2023-03-02T13:12:30.541Z,258.75
2023-03-02T13:13:30.688Z,258.75
2023-03-02T13:14:30.705Z,258.75
2023-03-02T13:15:30.730Z,258.75
2023-03-02T13:16:30.969Z,258.75
2023-03-02T13:17:30.967Z,258.75
2023-03-02T13:18:30.965Z,258.75
2023-03-02T13:19:31.021Z,258.75
2023-03-02T13:20:31.111Z,253.12
2023-03-02T13:21:31.256Z,253.12
2023-03-02T13:22:31.338Z,253.12
2023-03-02T13:23:31.341Z,253.12
2023-03-02T13:24:31.398Z,253.12
2023-03-02T13:25:31.475Z,253.12
2023-03-02T13:26:31.937Z,253.12
2023-03-02T13:27:31.714Z,253.12
2023-03-02T13:28:31.677Z,253.12
2023-03-02T13:29:31.783Z,253.12
2023-03-02T13:30:31.927Z,253.12
2023-03-02T13:31:32.083Z,253.12
2023-03-02T13:32:32.092Z,253.12
2023-03-02T13:33:32.025Z,253.12
2023-03-02T13:34:32.124Z,253.12
2023-03-02T13:35:32.221Z,253.12
2023-03-02T13:36:32.654Z,253.12
2023-03-02T13:37:32.423Z,253.12
2023-03-02T13:38:32.449Z,253.12
2023-03-02T13:39:32.509Z,253.12
2023-03-02T13:40:32.596Z,253.12
2023-03-02T13:41:32.654Z,253.12
2023-03-02T13:42:32.751Z,253.12
2023-03-02T13:43:32.803Z,253.12
2023-03-02T13:44:32.902Z,253.12
2023-03-02T13:45:32.940Z,253.12
2023-03-02T13:46:33.440Z,253.12
2023-03-02T13:47:33.147Z,253.12
2023-03-02T13:48:33.161Z,253.12
2023-03-02T13:49:33.221Z,253.12
2023-03-02T13:50:33.334Z,253.12
2023-03-02T13:51:33.382Z,253.12
2023-03-02T13:52:33.478Z,253.12
2023-03-02T13:53:33.531Z,253.12
2023-03-02T13:54:33.613Z,253.12
2023-03-02T13:55:33.667Z,253.12
2023-03-02T13:56:34.143Z,253.12
2023-03-02T13:57:33.840Z,253.12
2023-03-02T13:58:33.882Z,253.12
2023-03-02T13:59:33.980Z,247.50
2023-03-02T14:00:34.030Z,253.12
2023-03-02T14:01:34.097Z,247.50
2023-03-02T14:02:34.210Z,247.50
2023-03-02T14:03:34.264Z,247.50
2023-03-02T14:04:34.424Z,247.50
2023-03-02T14:05:34.462Z,247.50
2023-03-02T14:06:34.796Z,241.88
2023-03-02T14:07:34.581Z,230.62
2023-03-02T14:08:34.661Z,247.50
2023-03-02T14:09:34.721Z,247.50
2023-03-02T14:10:34.800Z,247.50
2023-03-02T14:11:34.892Z,247.50
2023-03-02T14:12:34.962Z,247.50
2023-03-02T14:13:35.026Z,241.88
2023-03-02T14:14:35.151Z,241.88
2023-03-02T14:15:35.213Z,241.88
2023-03-02T14:16:35.274Z,241.88
2023-03-02T14:17:35.350Z,241.88
2023-03-02T14:18:35.421Z,241.88
2023-03-02T14:19:35.469Z,241.88
2023-03-02T14:20:35.546Z,241.88
2023-03-02T14:21:36.085Z,241.88
2023-03-02T14:22:35.734Z,236.25
2023-03-02T14:23:35.802Z,236.25
2023-03-02T14:24:35.897Z,236.25
2023-03-02T14:25:35.949Z,236.25
2023-03-02T14:26:36.047Z,236.25
2023-03-02T14:27:36.125Z,236.25
2023-03-02T14:28:36.222Z,236.25
2023-03-02T14:29:36.269Z,236.25
2023-03-02T14:30:36.426Z,236.25
2023-03-02T14:31:36.563Z,236.25
2023-03-02T14:32:36.498Z,230.62
2023-03-02T14:33:36.566Z,230.62
2023-03-02T14:34:37.276Z,230.62
2023-03-02T14:35:36.825Z,230.62
2023-03-02T14:36:36.812Z,230.62
2023-03-02T14:37:36.909Z,230.62
2023-03-02T14:38:36.959Z,230.62
2023-03-02T14:39:37.044Z,230.62
2023-03-02T14:40:37.101Z,230.62
2023-03-02T14:41:43.964Z,230.62
2023-03-02T14:42:37.323Z,225.00
2023-03-02T14:43:37.348Z,225.00
2023-03-02T14:44:37.429Z,225.00
2023-03-02T14:45:37.488Z,225.00
2023-03-02T14:46:37.593Z,225.00
2023-03-02T14:47:37.626Z,225.00
2023-03-02T14:48:37.685Z,225.00
2023-03-02T14:49:37.771Z,225.00
2023-03-02T14:50:37.819Z,225.00
2023-03-02T14:51:37.904Z,225.00
2023-03-02T14:52:37.992Z,225.00
2023-03-02T14:53:38.037Z,219.38
2023-03-02T14:54:38.099Z,219.38
2023-03-02T14:55:38.187Z,219.38
2023-03-02T14:56:38.269Z,213.75
2023-03-02T14:57:38.390Z,219.38
2023-03-02T14:58:38.408Z,208.12
2023-03-02T14:59:38.508Z,213.75
2023-03-02T15:00:38.587Z,213.75
2023-03-02T15:01:38.790Z,219.38
2023-03-02T15:02:38.905Z,219.38
2023-03-02T15:03:38.859Z,219.38
2023-03-02T15:04:38.962Z,213.75
2023-03-02T15:05:40.693Z,213.75
2023-03-02T15:06:39.060Z,213.75
2023-03-02T15:07:39.189Z,213.75
2023-03-02T15:08:39.202Z,213.75
2023-03-02T15:09:39.295Z,213.75
2023-03-02T15:10:39.348Z,208.12
2023-03-02T15:11:39.432Z,208.12
2023-03-02T15:12:39.509Z,208.12
2023-03-02T15:13:39.575Z,208.12
2023-03-02T15:14:39.636Z,208.12
2023-03-02T15:15:39.718Z,208.12
2023-03-02T15:16:39.772Z,208.12
2023-03-02T15:17:39.876Z,208.12
2023-03-02T15:18:39.930Z,208.12
2023-03-02T15:19:40.032Z,202.50
2023-03-02T15:20:40.105Z,202.50
2023-03-02T15:21:40.190Z,202.50
2023-03-02T15:22:40.249Z,202.50
2023-03-02T15:23:40.327Z,202.50
2023-03-02T15:24:40.384Z,202.50
2023-03-02T15:25:40.486Z,202.50
2023-03-02T15:26:40.539Z,196.88
2023-03-02T15:27:40.647Z,196.88
2023-03-02T15:28:40.689Z,196.88
2023-03-02T15:29:40.778Z,196.88
2023-03-02T15:30:41.344Z,191.25
2023-03-02T15:31:40.943Z,191.25
2023-03-02T15:32:40.996Z,191.25
2023-03-02T15:33:41.071Z,185.62
2023-03-02T15:34:41.134Z,185.62
2023-03-02T15:35:41.253Z,185.62
2023-03-02T15:36:41.270Z,191.25
2023-03-02T15:37:41.371Z,191.25
2023-03-02T15:38:41.486Z,191.25
2023-03-02T15:39:41.516Z,185.62
2023-03-02T15:40:41.565Z,185.62
2023-03-02T15:41:41.657Z,185.62
2023-03-02T15:42:41.744Z,180.00
2023-03-02T15:43:41.785Z,174.38
2023-03-02T15:44:41.847Z,174.38
2023-03-02T15:45:41.938Z,174.38
2023-03-02T15:46:42.018Z,174.38
2023-03-02T15:47:42.100Z,174.38
2023-03-02T15:48:42.158Z,174.38
2023-03-02T15:49:42.257Z,174.38
2023-03-02T15:50:42.316Z,174.38
2023-03-02T15:51:42.445Z,168.75
2023-03-02T15:52:42.486Z,168.75
2023-03-02T15:53:42.550Z,168.75
2023-03-02T15:54:42.610Z,168.75
2023-03-02T15:55:42.699Z,163.12
2023-03-02T15:56:44.493Z,163.12
2023-03-02T15:57:42.830Z,163.12
2023-03-02T15:58:42.883Z,163.12
2023-03-02T15:59:42.986Z,157.50
2023-03-02T16:00:43.086Z,157.50
2023-03-02T16:01:43.153Z,157.50
2023-03-02T16:02:43.256Z,151.88
2023-03-02T16:03:43.306Z,151.88
2023-03-02T16:04:43.367Z,151.88
2023-03-02T16:05:43.456Z,151.88
2023-03-02T16:06:43.515Z,146.25
2023-03-02T16:07:43.623Z,146.25
2023-03-02T16:08:43.679Z,146.25
2023-03-02T16:09:44.340Z,146.25
2023-03-02T16:10:43.890Z,146.25
2023-03-02T16:11:43.954Z,146.25
2023-03-02T16:12:44.064Z,140.62
2023-03-02T16:13:44.085Z,140.62
2023-03-02T16:14:44.146Z,140.62
2023-03-02T16:15:44.250Z,135.00
2023-03-02T16:16:44.501Z,135.00
2023-03-02T16:17:44.439Z,135.00
2023-03-02T16:18:44.476Z,129.38
2023-03-02T16:19:44.559Z,129.38
2023-03-02T16:20:44.625Z,129.38
2023-03-02T16:21:44.676Z,123.75
2023-03-02T16:22:44.852Z,123.75
2023-03-02T16:23:44.868Z,123.75
2023-03-02T16:24:44.904Z,118.12
2023-03-02T16:25:44.978Z,118.12
2023-03-02T16:26:45.055Z,118.12
2023-03-02T16:27:45.165Z,112.50
2023-03-02T16:28:45.214Z,112.50
2023-03-02T16:29:45.280Z,106.88
2023-03-02T16:30:45.369Z,106.88
2023-03-02T16:31:45.457Z,106.88
2023-03-02T16:32:45.639Z,101.25
2023-03-02T16:33:45.643Z,101.25
2023-03-02T16:34:45.720Z,95.62
2023-03-02T16:35:45.800Z,95.62
2023-03-02T16:36:45.865Z,95.62
2023-03-02T16:37:45.967Z,90.00
2023-03-02T16:38:46.004Z,90.00
2023-03-02T16:39:46.092Z,84.38
2023-03-02T16:40:46.160Z,84.38
2023-03-02T16:41:46.319Z,84.38
2023-03-02T16:42:46.321Z,78.75
2023-03-02T16:43:46.416Z,78.75
2023-03-02T16:44:46.491Z,73.12
2023-03-02T16:45:46.579Z,73.12
2023-03-02T16:46:46.680Z,67.50
2023-03-02T16:47:46.739Z,67.50
2023-03-02T16:48:46.785Z,67.50
2023-03-02T16:49:46.901Z,61.88
2023-03-02T16:50:46.980Z,61.88
2023-03-02T16:51:47.084Z,56.25
2023-03-02T16:52:47.168Z,50.62
2023-03-02T16:53:47.241Z,50.62
2023-03-02T16:54:47.322Z,50.62
2023-03-02T16:55:47.412Z,45.00
2023-03-02T16:56:47.819Z,45.00
2023-03-02T16:57:47.620Z,39.38
2023-03-02T16:58:47.675Z,39.38
2023-03-02T16:59:47.790Z,39.38
2023-03-02T17:00:47.875Z,33.75
2023-03-02T17:01:47.988Z,33.75
2023-03-02T17:02:48.046Z,28.12
2023-03-02T17:03:48.175Z,28.12
2023-03-02T17:04:48.188Z,28.12
2023-03-02T17:05:48.261Z,22.50
2023-03-02T17:07:03.645Z,22.50
2023-03-02T17:07:48.460Z,22.50
2023-03-02T17:08:48.507Z,16.88
2023-03-02T17:09:48.602Z,16.88
2023-03-02T17:10:48.670Z,16.88
2023-03-02T17:11:48.738Z,16.88
2023-03-02T17:12:48.837Z,11.25
2023-03-02T17:13:48.913Z,11.25
2023-03-02T17:14:48.984Z,11.25
2023-03-02T17:15:49.084Z,11.25
2023-03-02T17:16:49.163Z,5.62
2023-03-02T17:17:49.270Z,5.62
2023-03-02T17:18:49.369Z,5.62
2023-03-02T17:19:49.409Z,5.62
2023-03-02T17:20:49.486Z,5.62
2023-03-02T17:21:49.602Z,5.62
2023-03-02T17:22:49.682Z,0.00
2023-03-02T17:23:49.776Z,0.00
2023-03-02T17:24:49.852Z,0.00
2023-03-02T17:25:49.924Z,0.00
2023-03-02T17:26:49.993Z,0.00
2023-03-02T17:27:50.105Z,0.00
2023-03-02T17:28:50.150Z,0.00
2023-03-02T17:29:50.227Z,0.00
2023-03-02T17:30:50.357Z,0.00
2023-03-02T17:31:50.372Z,0.00
2023-03-02T17:32:50.474Z,0.00
2023-03-02T17:33:50.554Z,0.00
2023-03-02T17:34:50.613Z,0.00
2023-03-02T17:35:50.682Z,0.00
2023-03-02T17:36:50.755Z,0.00
2023-03-02T17:37:50.917Z,0.00
2023-03-02T17:38:50.892Z,0.00
2023-03-02T17:39:50.977Z,0.00
2023-03-02T17:40:51.054Z,0.00
2023-03-02T17:41:51.129Z,0.00
2023-03-02T17:42:54.578Z,0.00
2023-03-02T17:43:51.292Z,0.00
2023-03-02T17:44:51.374Z,0.00
2023-03-02T17:45:51.516Z,0.00
2023-03-02T17:46:51.536Z,0.00
2023-03-02T17:47:51.652Z,0.00
2023-03-02T17:48:53.989Z,0.00
2023-03-02T17:49:51.798Z,0.00
2023-03-02T17:50:51.891Z,0.00
2023-03-02T17:51:51.986Z,0.00
2023-03-02T17:52:52.112Z,0.00
2023-03-02T17:53:52.153Z,0.00
2023-03-02T17:54:54.089Z,0.00
2023-03-02T17:55:52.296Z,0.00
2023-03-02T17:56:52.378Z,0.00
2023-03-02T17:57:52.467Z,0.00
2023-03-02T17:58:52.508Z,0.00
2023-03-02T17:59:52.615Z,0.00
2023-03-02T18:00:54.021Z,0.00
2023-03-02T18:01:52.777Z,0.00
2023-03-02T18:02:52.937Z,0.00
2023-03-02T18:03:52.970Z,0.00
2023-03-02T18:04:53.018Z,0.00
2023-03-02T18:05:53.088Z,0.00
2023-03-02T18:06:54.159Z,0.00
2023-03-02T18:07:53.285Z,0.00
2023-03-02T18:08:53.329Z,0.00
2023-03-02T18:09:53.420Z,0.00
2023-03-02T18:10:53.497Z,0.00
2023-03-02T18:11:53.611Z,0.00
2023-03-02T18:12:54.466Z,0.00
2023-03-02T18:13:53.778Z,0.00
2023-03-02T18:14:53.862Z,0.00
2023-03-02T18:15:54.021Z,0.00
2023-03-02T18:16:54.023Z,0.00
2023-03-02T18:17:54.118Z,0.00
2023-03-02T18:18:54.238Z,0.00
2023-03-02T18:19:54.252Z,0.00
2023-03-02T18:20:54.328Z,0.00
2023-03-02T18:21:54.426Z,0.00
2023-03-02T18:22:54.522Z,0.00
2023-03-02T18:23:54.603Z,0.00
2023-03-02T18:24:54.672Z,0.00
2023-03-02T18:25:54.756Z,0.00
2023-03-02T18:26:54.842Z,0.00
2023-03-02T18:27:55.028Z,0.00
2023-03-02T18:28:55.020Z,0.00
2023-03-02T18:29:55.100Z,0.00
2023-03-02T18:30:55.233Z,0.00
2023-03-02T18:31:55.308Z,0.00
2023-03-02T18:32:55.383Z,0.00
2023-03-02T18:33:55.406Z,0.00
2023-03-02T18:34:55.487Z,0.00
2023-03-02T18:35:55.553Z,0.00
2023-03-02T18:36:55.623Z,0.00
2023-03-02T18:37:55.778Z,0.00
2023-03-02T18:38:55.805Z,0.00
2023-03-02T18:39:55.864Z,0.00
2023-03-02T18:40:55.942Z,0.00
2023-03-02T18:41:56.012Z,0.00
2023-03-02T18:42:56.115Z,0.00
2023-03-02T18:43:56.179Z,0.00
2023-03-02T18:44:56.258Z,0.00
2023-03-02T18:45:56.319Z,0.00
2023-03-02T18:46:56.462Z,0.00
2023-03-02T18:47:56.508Z,0.00
2023-03-02T18:48:56.555Z,0.00
2023-03-02T18:49:56.625Z,0.00
2023-03-02T18:50:56.703Z,0.00
2023-03-02T18:51:56.979Z,0.00
2023-03-02T18:52:56.869Z,0.00
2023-03-02T18:53:56.926Z,0.00
2023-03-02T18:54:57.040Z,0.00
2023-03-02T18:55:57.076Z,0.00
2023-03-02T18:56:57.159Z,0.00
2023-03-02T18:57:57.247Z,0.00
2023-03-02T18:58:57.346Z,0.00
2023-03-02T18:59:57.393Z,0.00
2023-03-02T19:00:57.499Z,0.00
2023-03-02T19:01:57.693Z,0.00
2023-03-02T19:02:57.636Z,0.00
2023-03-02T19:03:57.718Z,0.00
2023-03-02T19:04:57.799Z,0.00
2023-03-02T19:05:58.314Z,0.00
2023-03-02T19:06:57.965Z,0.00
2023-03-02T19:07:58.066Z,0.00
2023-03-02T19:08:58.130Z,0.00
2023-03-02T19:09:58.207Z,0.00
2023-03-02T19:10:58.281Z,0.00
2023-03-02T19:11:58.358Z,0.00
2023-03-02T19:12:58.482Z,0.00
2023-03-02T19:13:58.523Z,0.00
2023-03-02T19:14:58.630Z,0.00
2023-03-02T19:15:58.761Z,0.00
2023-03-02T19:16:58.794Z,0.00
2023-03-02T19:17:58.899Z,0.00
2023-03-02T19:18:59.005Z,0.00
2023-03-02T19:19:59.018Z,0.00
2023-03-02T19:20:59.125Z,0.00
2023-03-02T19:21:59.204Z,0.00
2023-03-02T19:22:59.321Z,0.00
2023-03-02T19:23:59.375Z,0.00
2023-03-02T19:24:59.440Z,0.00
2023-03-02T19:25:59.534Z,0.00
2023-03-02T19:26:59.621Z,0.00
2023-03-02T19:27:59.714Z,0.00
2023-03-02T19:28:59.789Z,0.00
2023-03-02T19:29:59.872Z,0.00
2023-03-02T19:30:59.939Z,0.00
2023-03-02T19:32:00.156Z,0.00
2023-03-02T19:33:00.129Z,0.00
2023-03-02T19:34:00.180Z,0.00
2023-03-02T19:35:00.255Z,0.00
2023-03-02T19:36:00.430Z,0.00
2023-03-02T19:37:00.400Z,0.00
2023-03-02T19:38:00.538Z,0.00
2023-03-02T19:39:00.553Z,0.00
2023-03-02T19:40:00.628Z,0.00
2023-03-02T19:41:00.694Z,0.00
2023-03-02T19:42:00.779Z,0.00
2023-03-02T19:43:00.876Z,0.00
2023-03-02T19:44:00.909Z,0.00
2023-03-02T19:45:00.997Z,0.00
2023-03-02T19:46:01.146Z,0.00
2023-03-02T19:47:01.177Z,0.00
2023-03-02T19:48:01.267Z,0.00
2023-03-02T19:49:01.565Z,0.00
2023-03-02T19:50:01.411Z,0.00
2023-03-02T19:51:01.481Z,0.00
2023-03-02T19:52:01.563Z,0.00
2023-03-02T19:53:01.691Z,0.00
2023-03-02T19:54:04.054Z,0.00
2023-03-02T19:55:01.845Z,0.00
2023-03-02T19:56:01.919Z,0.00
2023-03-02T19:57:02.018Z,0.00
2023-03-02T19:58:02.143Z,0.00
2023-03-02T19:59:02.218Z,0.00
2023-03-02T20:00:02.411Z,0.00
2023-03-02T20:01:02.370Z,0.00
2023-03-02T20:02:02.459Z,0.00
2023-03-02T20:03:02.526Z,0.00
2023-03-02T20:04:02.573Z,0.00
2023-03-02T20:05:02.666Z,0.00
2023-03-02T20:06:02.748Z,0.00
2023-03-02T20:07:02.823Z,0.00
2023-03-02T20:08:02.927Z,0.00
2023-03-02T20:09:03.001Z,0.00
2023-03-02T20:10:03.082Z,0.00
2023-03-02T20:11:03.159Z,0.00
2023-03-02T20:12:03.209Z,0.00
2023-03-02T20:13:03.312Z,0.00
2023-03-02T20:14:03.352Z,0.00
2023-03-02T20:15:03.430Z,0.00
2023-03-02T20:16:03.504Z,0.00
2023-03-02T20:17:03.578Z,0.00
2023-03-02T20:18:03.665Z,0.00
2023-03-02T20:19:03.738Z,0.00
2023-03-02T20:20:03.825Z,0.00
2023-03-02T20:21:03.921Z,0.00
2023-03-02T20:22:04.035Z,0.00
2023-03-02T20:23:04.115Z,0.00
2023-03-02T20:24:04.167Z,0.00
2023-03-02T20:25:04.240Z,0.00
2023-03-02T20:26:04.325Z,0.00
2023-03-02T20:27:04.403Z,0.00
2023-03-02T20:28:04.484Z,0.00
2023-03-02T20:29:04.564Z,0.00
2023-03-02T20:30:04.642Z,0.00
2023-03-02T20:31:04.761Z,0.00
2023-03-02T20:32:04.827Z,0.00
2023-03-02T20:33:04.880Z,0.00
2023-03-02T20:34:04.925Z,0.00
2023-03-02T20:35:05.020Z,0.00
2023-03-02T20:36:05.093Z,0.00
2023-03-02T20:37:05.193Z,0.00
2023-03-02T20:38:05.341Z,0.00
2023-03-02T20:39:05.378Z,0.00
2023-03-02T20:40:05.441Z,0.00
2023-03-02T20:41:05.536Z,0.00
2023-03-02T20:42:05.636Z,0.00
2023-03-02T20:43:05.721Z,0.00
2023-03-02T20:44:05.809Z,0.00
2023-03-02T20:45:05.905Z,0.00
2023-03-02T20:46:06.029Z,0.00
2023-03-02T20:47:06.071Z,0.00
2023-03-02T20:48:06.146Z,0.00
2023-03-02T20:49:06.200Z,0.00
2023-03-02T20:50:06.272Z,0.00
2023-03-02T20:51:06.343Z,0.00
2023-03-02T20:52:06.441Z,0.00
2023-03-02T20:53:06.513Z,0.00
2023-03-02T20:54:06.595Z,0.00
2023-03-02T20:55:06.665Z,0.00
2023-03-02T20:56:06.743Z,0.00
2023-03-02T20:57:06.810Z,0.00
2023-03-02T20:58:06.930Z,0.00
2023-03-02T20:59:06.972Z,0.00
2023-03-02T21:00:07.046Z,0.00
2023-03-02T21:01:07.165Z,0.00
2023-03-02T21:02:07.198Z,0.00
2023-03-02T21:03:07.292Z,0.00
2023-03-02T21:04:07.393Z,0.00
2023-03-02T21:05:07.493Z,0.00
2023-03-02T21:06:07.552Z,0.00
2023-03-02T21:07:07.625Z,0.00
2023-03-02T21:08:07.718Z,0.00
2023-03-02T21:09:07.792Z,0.00
2023-03-02T21:10:07.862Z,0.00
2023-03-02T21:11:07.926Z,0.00
2023-03-02T21:12:08.013Z,0.00
2023-03-02T21:13:08.115Z,0.00
2023-03-02T21:14:08.189Z,0.00
2023-03-02T21:15:08.271Z,0.00
2023-03-02T21:16:08.370Z,0.00
2023-03-02T21:17:08.414Z,0.00
2023-03-02T21:18:08.511Z,0.00
2023-03-02T21:19:08.530Z,0.00